Weather observations for the past three days for
Ormond Beach, Ormond Beach Municipal Airport
| Date | Time (edt) | Wind (mph) | Vis. (mi.) | Weather | Sky Cond. | Temperature (ºF) | Relative Humidity | Wind Chill (°F) | Heat Index (°F) | Pressure | Precipitation (in) | ||||||
|---|---|---|---|---|---|---|---|---|---|---|---|---|---|---|---|---|---|
| Air | Dwpt | 6 hour | altimeter (in) | sea level (mb) | 1 hr | 3 hr | 6 hr | ||||||||||
| Max. | Min. | ||||||||||||||||
| 04 | 14:50 | E 12 G 22 | 10.00 | Partly Cloudy | SCT048 | 77 | 59 | 54% | 79 | 30.05 | 0.0 | ||||||
| 04 | 13:50 | E 12 G 17 | 10.00 | Partly Cloudy | SCT048 | 75.2 | 59 | 57% | 78 | 30.06 | 0.0 | ||||||
| 04 | 12:50 | E 10 G 17 | 10.00 | Partly Cloudy | SCT044 | 75.2 | 59 | 57% | 78 | 30.06 | 0.0 | ||||||
| 04 | 11:50 | NE 13 G 21 | 10.00 | Partly Cloudy | SCT044 | 77 | 59 | 54% | 79 | 30.08 | 0.0 | ||||||
| 04 | 10:50 | NE 12 G 21 | 10.00 | Partly Cloudy | SCT038 | 75.2 | 60.8 | 61% | 77 | 30.08 | 0.0 | ||||||
| 04 | 09:50 | NE 12 | 10.00 | Partly Cloudy | SCT040 | 75.2 | 59 | 57% | 78 | 30.06 | 0.0 | ||||||
| 04 | 08:50 | NE 7 | 10.00 | Partly Cloudy | SCT040 | 71.6 | 60.8 | 69% | 30.06 | 0.0 | |||||||
| 04 | 07:50 | Calm | 10.00 | Partly Cloudy | SCT035 | 66.2 | 59 | 78% | 30.05 | 0.0 | |||||||
| 04 | 06:50 | NW 5 | 10.00 | Partly Cloudy | SCT022 | 59 | 57.2 | 94% | 30.03 | 0.0 | |||||||
| 03 | 18:50 | N 9 | 7.00 | Fair | CLR | 71.6 | 59 | 65% | 30.04 | 0.0 | |||||||
| 03 | 17:50 | N 10 G 17 | 7.00 | Fair | CLR | 73.4 | 57.2 | 57% | 30.03 | 0.0 | |||||||
| 03 | 16:50 | N 10 G 17 | 7.00 | Fair | CLR | 75.2 | 59 | 57% | 78 | 30.04 | 0.0 | ||||||
| 03 | 15:50 | N 10 G 17 | 7.00 | A Few Clouds | FEW038 | 75.2 | 57.2 | 54% | 78 | 30.05 | 0.0 | ||||||
| 03 | 14:50 | NE 12 G 18 | 7.00 | A Few Clouds | FEW038 | 73.4 | 59 | 61% | 30.07 | 0.0 | |||||||
| 03 | 13:50 | N 10 G 18 | 7.00 | Partly Cloudy | SCT037 | 73.4 | 59 | 61% | 30.1 | 0.0 | |||||||
| 03 | 12:50 | NE 17 G 23 | 7.00 | Mostly Cloudy | BKN031 | 71.6 | 60.8 | 69% | 30.1 | 0.0 | |||||||
| 03 | 11:50 | NE 17 G 23 | 7.00 | Mostly Cloudy | FEW026 BKN038 | 71.6 | 60.8 | 69% | 30.1 | 0.0 | |||||||
| 03 | 10:50 | NE 17 G 23 | 8.00 | Partly Cloudy | FEW026 SCT034 | 71.6 | 60.8 | 69% | 30.09 | 0.0 | |||||||
| 03 | 09:50 | NE 14 | 8.00 | Mostly Cloudy | BKN028 | 69.8 | 62.6 | 78% | 30.07 | 0.0 | |||||||
| 03 | 08:50 | N 9 | 8.00 | Mostly Cloudy | BKN028 | 64.4 | 64.4 | 100% | 30.05 | 0.0 | |||||||
| 03 | 06:50 | NW 7 | 8.00 | Mostly Cloudy | SCT026 BKN075 | 60.8 | 60.8 | 100% | 30.02 | 0.0 | |||||||
| 02 | 18:50 | W 8 | 7.00 | Overcast | OVC070 | 71.6 | 71.6 | 100% | 29.83 | 0.0 | |||||||
| 02 | 17:50 | SW 9 | 7.00 | Overcast | OVC070 | 71.6 | 71.6 | 100% | 29.8 | 0.0 | |||||||
| 02 | 16:50 | W 12 G 20 | 7.00 | Overcast | BKN070 OVC090 | 69.8 | 69.8 | 100% | 29.81 | 0.0 | |||||||
| 02 | 15:50 | SW 12 G 20 | 7.00 | Light Rain | BKN070 | 69.8 | 69.8 | 100% | 29.82 | 0.0 | |||||||
| 02 | 14:50 | W 9 | 7.00 | Light Rain | BKN070 | 69.8 | 69.8 | 100% | 29.84 | 0.0 | |||||||
| 02 | 12:50 | SW 7 | 7.00 | Partly Cloudy | SCT040 | 84.2 | 71.6 | 66% | 90 | 29.83 | 0.0 | ||||||
| 02 | 11:50 | SW 13 G 23 | 7.00 | Fair | CLR | 82.4 | 69.8 | 66% | 86 | 29.83 | 0.0 | ||||||
| 02 | 10:50 | SW 8 | 7.00 | Partly Cloudy | SCT050 | 80.6 | 73.4 | 79% | 85 | 29.86 | 0.0 | ||||||
| 02 | 09:50 | SW 6 | 7.00 | Partly Cloudy | SCT050 | 75.2 | 75.2 | 100% | 73 | 29.86 | 0.0 | ||||||
| 02 | 08:50 | SW 6 | 7.00 | Partly Cloudy | SCT070 | 73.4 | 73.4 | 100% | 29.84 | 0.0 | |||||||
| 02 | 07:50 | Calm | 7.00 | Fair | CLR | 69.8 | 69.8 | 100% | 29.83 | 0.0 | |||||||
| 02 | 06:50 | Calm | 7.00 | Mostly Cloudy | BKN002 | 69.8 | 69.8 | 100% | 29.8 | 0.0 | |||||||
| 01 | 18:50 | E 8 | 7.00 | A Few Clouds | FEW070 | 80.6 | 69.8 | 70% | 84 | 29.83 | 0.0 | ||||||
| 01 | 17:50 | E 9 | 7.00 | A Few Clouds | FEW060 | 80.6 | 69.8 | 70% | 84 | 29.81 | 0.0 | ||||||
| 01 | 16:50 | E 9 | 7.00 | Partly Cloudy | SCT060 | 84.2 | 71.6 | 66% | 90 | 29.81 | 0.0 | ||||||
| 01 | 15:50 | E 12 | 7.00 | Partly Cloudy | SCT060 | 82.4 | 71.6 | 70% | 87 | 29.82 | 0.0 | ||||||
| Date | Time (edt) | Wind (mph) | Vis. (mi.) | Weather | Sky Cond. | Air | Dwpt | Max. | Min. | Relative Humidity | Wind Chill (°F) | Heat Index (°F) | altimeter (in) | sea level (mb) | 1 hr | 3 hr | 6 hr |
| 6 hour | |||||||||||||||||
| Temperature (ºF) | Pressure | Precipitation (in) | |||||||||||||||